Time;durP1;ratioP1;P1;durP2;ratioP2;P2;SDS_P1;SDS_P2;PMS_P1;PMS_P2;Temp;Humidity;BMP_temperature;BMP_pressure;BME280_temperature;BME280_humidity;BME280_pressure;Samples;Min_cycle;Max_cycle;Signal;HPM_P1;HPM_P2
2022/01/17 00:00:52;;;;;;;89.07;50.80;;;;;;;5.02;100.00;103043.72;5086952;28;20035;-79
2022/01/17 00:03:18;;;;;;;104.70;51.35;;;;;;;5.02;100.00;103043.72;5077116;28;20028;-79
2022/01/17 00:05:44;;;;;;;92.07;51.47;;;;;;;5.03;100.00;103049.78;5067743;28;20047;-79
2022/01/17 00:08:09;;;;;;;98.68;51.00;;;;;;;5.07;100.00;103053.22;5074977;28;20032;-79
2022/01/17 00:10:35;;;;;;;94.20;50.22;;;;;;;5.08;100.00;103062.75;5077347;28;20020;-79
2022/01/17 00:13:00;;;;;;;99.10;51.28;;;;;;;5.07;100.00;103063.66;5069585;28;20107;-78
2022/01/17 00:15:41;;;;;;;93.75;50.28;;;;;;;5.08;100.00;103074.06;5076091;28;20032;-79
2022/01/17 00:20:38;;;;;;;87.97;47.97;;;;;;;5.07;100.00;103081.91;5075983;28;20044;-78
2022/01/17 00:23:03;;;;;;;86.25;47.78;;;;;;;5.05;100.00;103074.09;5103036;28;20368;-79
2022/01/17 00:25:28;;;;;;;89.80;45.90;;;;;;;5.04;100.00;103086.28;5080244;28;20092;-79
2022/01/17 00:27:54;;;;;;;86.57;45.75;;;;;;;5.07;100.00;103082.78;5084522;28;20158;-77
2022/01/17 00:30:19;;;;;;;87.63;46.45;;;;;;;5.07;100.00;103084.50;5088027;28;20066;-78
2022/01/17 00:32:45;;;;;;;81.47;44.78;;;;;;;5.04;100.00;103078.47;5088312;28;20024;-78
2022/01/17 00:35:10;;;;;;;80.70;44.10;;;;;;;5.06;100.00;103069.75;5086767;28;20043;-78
2022/01/17 00:37:36;;;;;;;79.63;42.83;;;;;;;5.06;100.00;103069.75;5083625;28;20020;-78
2022/01/17 00:40:03;;;;;;;77.63;42.58;;;;;;;5.07;100.00;103066.25;5092513;28;20032;-78
2022/01/17 00:42:28;;;;;;;78.20;41.03;;;;;;;5.07;100.00;103066.25;5101774;28;20029;-81
2022/01/17 00:44:53;;;;;;;76.85;40.13;;;;;;;5.07;100.00;103067.13;5087402;28;20502;-81
2022/01/17 00:47:21;;;;;;;77.20;41.90;;;;;;;5.08;100.00;103070.59;5085109;28;20063;-80
2022/01/17 00:49:47;;;;;;;76.93;40.50;;;;;;;5.09;100.00;103073.16;5084097;28;20031;-79
2022/01/17 00:52:12;;;;;;;78.13;41.50;;;;;;;5.09;100.00;103086.22;5086654;28;20051;-78
2022/01/17 00:54:38;;;;;;;75.07;38.45;;;;;;;5.08;100.00;103081.03;5087925;28;20092;-78
2022/01/17 00:57:03;;;;;;;74.80;40.10;;;;;;;5.12;100.00;103087.91;5084409;28;20110;-78
2022/01/17 00:59:29;;;;;;;77.28;38.40;;;;;;;5.10;100.00;103076.63;5089666;28;20020;-78
2022/01/17 01:01:54;;;;;;;77.82;40.60;;;;;;;5.08;100.00;103083.63;5076341;28;20024;-80
2022/01/17 01:04:20;;;;;;;69.68;39.40;;;;;;;5.09;100.00;103085.34;5074456;28;20020;-81
2022/01/17 01:06:45;;;;;;;74.38;39.28;;;;;;;5.10;100.00;103084.47;5071868;28;20075;-80
2022/01/17 01:09:10;;;;;;;67.30;39.42;;;;;;;5.09;100.00;103080.13;5085204;28;20027;-80
2022/01/17 01:11:36;;;;;;;68.10;38.58;;;;;;;5.08;100.00;103088.84;5074603;28;20020;-78
2022/01/17 01:14:01;;;;;;;65.95;37.55;;;;;;;5.08;100.00;103100.16;5101335;28;20047;-78
2022/01/17 01:16:33;;;;;;;71.22;37.40;;;;;;;5.10;100.00;103100.13;5079849;28;20012;-79
2022/01/17 01:29:27;;;;;;;64.75;36.83;;;;;;;5.09;100.00;103098.41;5074654;28;20178;-78
2022/01/17 01:32:04;;;;;;;67.45;36.35;;;;;;;5.07;100.00;103090.59;5087516;28;20028;-78
2022/01/17 01:34:36;;;;;;;68.80;36.15;;;;;;;5.08;100.00;103081.03;5085408;28;20484;-78
2022/01/17 01:37:03;;;;;;;;;;;;;;;5.17;100.00;103084.34;5081174;28;20032;-78
2022/01/17 01:39:29;;;;;;;69.85;33.38;;;;;;;5.13;100.00;103081.81;5089104;28;19916;-78
2022/01/17 01:41:54;;;;;;;66.90;34.15;;;;;;;5.10;100.00;103077.50;5097829;28;20035;-78
2022/01/17 01:44:23;;;;;;;61.75;32.05;;;;;;;5.08;100.00;103078.41;5089717;28;20024;-78
2022/01/17 01:46:49;;;;;;;62.42;31.38;;;;;;;5.04;100.00;103086.28;5083640;28;20031;-78
2022/01/17 01:49:16;;;;;;;53.50;30.25;;;;;;;5.03;100.00;103097.59;5088731;28;20078;-78
2022/01/17 01:51:42;;;;;;;51.05;30.08;;;;;;;5.02;100.00;103101.09;5075658;28;20032;-80
2022/01/17 01:54:08;;;;;;;52.42;27.17;;;;;;;4.99;100.00;103105.50;5097319;28;20027;-80
2022/01/17 01:56:38;;;;;;;45.75;27.67;;;;;;;4.96;100.00;103116.84;5089558;28;20497;-81
2022/01/17 01:59:05;;;;;;;58.00;27.10;;;;;;;4.92;100.00;103117.78;5083472;28;20028;-78
2022/01/17 02:01:31;;;;;;;51.45;26.92;;;;;;;4.90;100.00;103108.25;5093929;28;20320;-78
2022/01/17 02:03:57;;;;;;;48.22;25.38;;;;;;;4.86;100.00;103098.75;5088179;28;20388;-78
2022/01/17 02:06:22;;;;;;;45.83;25.20;;;;;;;4.84;100.00;103100.50;5070296;28;20025;-78
2022/01/17 02:08:47;;;;;;;49.58;26.25;;;;;;;4.82;100.00;103108.38;5081185;28;20035;-78
2022/01/17 02:11:13;;;;;;;48.10;26.02;;;;;;;4.78;100.00;103109.25;5088933;28;20028;-78
2022/01/17 02:13:39;;;;;;;47.92;25.25;;;;;;;4.73;100.00;103108.47;5078364;28;20320;-79
2022/01/17 02:16:15;;;;;;;46.22;25.45;;;;;;;4.69;100.00;103107.66;5081147;28;20020;-79
2022/01/17 02:18:45;;;;;;;45.30;24.52;;;;;;;4.65;100.00;103105.09;5084172;28;20028;-79
2022/01/17 02:23:48;;;;;;;40.38;23.23;;;;;;;4.59;100.00;103123.44;5088634;28;20452;-78
2022/01/17 02:26:16;;;;;;;42.40;23.40;;;;;;;4.53;100.00;103118.28;5078043;28;20435;-79
2022/01/17 02:28:50;;;;;;;41.72;22.77;;;;;;;4.49;100.00;103108.78;5100600;28;20038;-79
2022/01/17 02:31:16;;;;;;;38.60;21.92;;;;;;;4.43;100.00;103103.66;5076783;28;20108;-79
2022/01/17 02:33:42;;;;;;;38.90;22.10;;;;;;;4.42;100.00;103107.16;5081421;28;20424;-79
2022/01/17 02:36:09;;;;;;;42.97;22.83;;;;;;;4.37;100.00;103104.56;5088868;28;20038;-78
2022/01/17 02:38:35;;;;;;;45.42;22.55;;;;;;;4.35;100.00;103107.19;5088831;28;20111;-78
2022/01/17 02:41:00;;;;;;;43.60;22.70;;;;;;;4.32;100.00;103114.19;5089068;28;20127;-78
2022/01/17 02:43:27;;;;;;;40.22;24.17;;;;;;;4.28;100.00;103115.97;5070483;28;20031;-79
2022/01/17 02:48:20;;;;;;;49.85;25.95;;;;;;;4.25;100.00;103116.00;5089040;28;20447;-79
2022/01/17 02:50:46;;;;;;;53.33;25.40;;;;;;;4.23;100.00;103109.94;5083827;28;20025;-78
2022/01/17 02:53:15;;;;;;;48.92;26.00;;;;;;;4.20;100.00;103107.38;5069639;28;20038;-78
2022/01/17 02:55:49;;;;;;;49.13;27.77;;;;;;;4.19;100.00;103115.22;5087271;28;20024;-78
2022/01/17 02:58:15;;;;;;;50.40;27.33;;;;;;;4.15;100.00;103109.19;5071021;28;20024;-79
2022/01/17 03:00:40;;;;;;;59.47;27.77;;;;;;;4.11;100.00;103115.31;5080614;28;20023;-78
2022/01/17 03:03:09;;;;;;;50.08;28.48;;;;;;;4.14;100.00;103115.25;5077774;28;20028;-79
2022/01/17 03:05:35;;;;;;;55.30;29.00;;;;;;;4.08;100.00;103107.53;5076650;28;20069;-78
2022/01/17 03:08:00;;;;;;;47.50;28.67;;;;;;;4.08;100.00;103103.16;5077454;28;20028;-78
2022/01/17 03:13:01;;;;;;;55.10;28.92;;;;;;;4.05;100.00;103103.22;5084630;28;20036;-78
2022/01/17 03:15:26;;;;;;;;;;;;;;;4.13;100.00;103103.13;5078120;28;20031;-78
2022/01/17 03:17:53;;;;;;;56.67;28.73;;;;;;;4.03;100.00;103098.91;5087880;28;19912;-78
2022/01/17 03:20:18;;;;;;;52.60;28.58;;;;;;;3.99;100.00;103098.03;5088378;28;20023;-78
2022/01/17 03:22:44;;;;;;;50.80;28.15;;;;;;;3.99;100.00;103107.59;5102946;28;20028;-78
2022/01/17 03:25:09;;;;;;;52.80;28.60;;;;;;;3.94;100.00;103106.78;5081900;28;20094;-78
2022/01/17 03:27:35;;;;;;;58.15;29.98;;;;;;;3.93;100.00;103097.25;5084846;28;20023;-78
2022/01/17 03:30:00;;;;;;;55.25;29.70;;;;;;;3.94;100.00;103091.16;5080133;28;20015;-79
2022/01/17 03:32:25;;;;;;;59.08;31.00;;;;;;;3.92;100.00;103095.50;5079184;28;20024;-78
2022/01/17 03:34:51;;;;;;;57.10;30.35;;;;;;;3.91;100.00;103089.44;5080754;28;20044;-78
2022/01/17 03:37:16;;;;;;;61.53;31.50;;;;;;;3.90;100.00;103098.13;5087855;28;20069;-78
2022/01/17 03:39:42;;;;;;;62.67;31.75;;;;;;;3.90;100.00;103099.88;5079161;28;20028;-78
2022/01/17 03:42:07;;;;;;;60.70;29.85;;;;;;;3.89;100.00;103111.16;5088184;28;20567;-78
2022/01/17 03:44:32;;;;;;;68.20;30.23;;;;;;;3.88;100.00;103109.44;5095572;28;20020;-79
2022/01/17 03:46:58;;;;;;;60.38;28.60;;;;;;;3.86;100.00;103116.41;5079471;28;20027;-78
2022/01/17 03:49:23;;;;;;;58.55;29.08;;;;;;;3.84;100.00;103106.00;5083607;28;20145;-78
2022/01/17 03:51:48;;;;;;;51.30;27.77;;;;;;;3.87;100.00;103120.75;5087207;28;20031;-79
2022/01/17 03:54:15;;;;;;;56.20;27.65;;;;;;;3.84;100.00;103118.16;5089546;28;20024;-77
2022/01/17 03:56:43;;;;;;;52.13;25.48;;;;;;;3.84;100.00;103113.81;5087220;28;20016;-78
2022/01/17 03:59:08;;;;;;;50.22;26.27;;;;;;;3.82;100.00;103104.31;5089063;28;20035;-77
2022/01/17 04:01:34;;;;;;;48.70;25.60;;;;;;;3.76;100.00;103103.50;5087680;28;20019;-78
2022/01/17 04:03:59;;;;;;;49.33;24.80;;;;;;;3.76;100.00;103102.63;5077031;28;20034;-77
2022/01/17 04:06:26;;;;;;;43.38;21.92;;;;;;;3.76;100.00;103110.44;5083995;28;20024;-78
2022/01/17 04:08:51;;;;;;;42.70;22.30;;;;;;;3.72;100.00;103114.81;5085820;28;20143;-77
2022/01/17 04:11:16;;;;;;;43.03;21.95;;;;;;;3.67;100.00;103108.78;5086940;28;20535;-78
2022/01/17 04:13:42;;;;;;;45.08;21.58;;;;;;;3.66;100.00;103117.47;5095387;28;20024;-78
2022/01/17 04:16:07;;;;;;;39.75;19.60;;;;;;;3.63;100.00;103122.72;5077264;28;20024;-78
2022/01/17 04:18:33;;;;;;;40.85;19.45;;;;;;;3.59;100.00;103110.56;5081200;28;20027;-78
2022/01/17 04:21:01;;;;;;;36.28;19.67;;;;;;;3.61;100.00;103121.00;5069586;28;20029;-79
2022/01/17 04:23:27;;;;;;;35.08;19.08;;;;;;;3.56;100.00;103118.41;5090957;28;20699;-77
2022/01/17 04:25:52;;;;;;;36.22;19.45;;;;;;;3.57;100.00;103119.25;5082159;28;20115;-78
2022/01/17 04:28:18;;;;;;;39.63;18.80;;;;;;;3.54;100.00;103114.94;5086865;28;20025;-78
2022/01/17 04:30:43;;;;;;;44.38;18.98;;;;;;;3.55;100.00;103121.88;5095456;28;20416;-78
2022/01/17 04:33:09;;;;;;;33.85;18.73;;;;;;;3.55;100.00;103131.44;5097380;28;20054;-77
2022/01/17 04:35:36;;;;;;;40.03;19.20;;;;;;;3.54;100.00;103140.09;5090405;28;20042;-78
2022/01/17 04:38:05;;;;;;;32.28;18.02;;;;;;;3.53;100.00;103134.03;5087981;28;20028;-79
2022/01/17 04:40:35;;;;;;;34.78;19.08;;;;;;;3.52;100.00;103123.66;5083385;28;20024;-79
2022/01/17 04:43:04;;;;;;;35.22;19.23;;;;;;;3.48;100.00;103130.63;5098186;28;20036;-78
2022/01/17 04:45:31;;;;;;;34.88;18.48;;;;;;;3.47;100.00;103136.69;5076618;28;20487;-79
2022/01/17 04:47:56;;;;;;;36.47;18.85;;;;;;;3.48;100.00;103125.41;5078728;28;20028;-78
2022/01/17 04:50:25;;;;;;;40.20;21.13;;;;;;;3.47;100.00;103129.75;5089722;28;20353;-78
2022/01/17 04:52:54;;;;;;;39.80;19.27;;;;;;;3.42;100.00;103117.66;5091539;28;20033;-77
2022/01/17 04:55:20;;;;;;;38.00;20.35;;;;;;;3.43;100.00;103121.97;5102177;28;20071;-78
2022/01/17 04:57:46;;;;;;;37.75;21.02;;;;;;;3.43;100.00;103128.06;5070688;28;20024;-77
2022/01/17 05:00:17;;;;;;;38.72;20.92;;;;;;;3.39;100.00;103118.53;5087664;28;20028;-78
2022/01/17 05:02:43;;;;;;;42.85;20.50;;;;;;;3.38;100.00;103123.75;5089913;28;20038;-77
2022/01/17 05:05:10;;;;;;;44.75;22.17;;;;;;;3.36;100.00;103126.38;5080252;28;20103;-78
2022/01/17 05:07:36;;;;;;;37.72;20.40;;;;;;;3.36;100.00;103135.91;5099902;28;20041;-77
2022/01/17 05:10:04;;;;;;;39.13;21.65;;;;;;;3.37;100.00;103127.25;5070721;28;20039;-77
2022/01/17 05:12:30;;;;;;;41.38;21.67;;;;;;;3.35;100.00;103129.00;5089146;28;20650;-78
2022/01/17 05:14:56;;;;;;;43.58;22.67;;;;;;;3.32;100.00;103140.28;5099066;28;20115;-78
2022/01/17 05:20:00;;;;;;;40.70;21.95;;;;;;;3.33;100.00;103156.75;5072365;28;20404;-78
2022/01/17 05:22:31;;;;;;;39.13;22.30;;;;;;;3.29;100.00;103152.44;5081287;28;20023;-78
2022/01/17 05:24:56;;;;;;;38.30;21.35;;;;;;;3.29;100.00;103161.13;5082512;28;20507;-78
2022/01/17 05:27:22;;;;;;;39.08;21.50;;;;;;;3.29;100.00;103171.53;5075720;28;20105;-78
2022/01/17 05:29:47;;;;;;;40.03;22.10;;;;;;;3.29;100.00;103168.06;5082090;28;20036;-78
2022/01/17 05:32:13;;;;;;;37.85;21.80;;;;;;;3.27;100.00;103162.00;5089479;28;20400;-78
2022/01/17 05:34:40;;;;;;;42.30;22.35;;;;;;;3.26;100.00;103165.47;5070178;28;20053;-78
2022/01/17 05:37:13;;;;;;;46.40;22.13;;;;;;;3.26;100.00;103175.88;5087553;28;20024;-78
2022/01/17 05:39:39;;;;;;;41.97;23.02;;;;;;;3.19;100.00;103164.63;5082898;28;20076;-78
2022/01/17 05:42:05;;;;;;;44.05;24.73;;;;;;;3.22;100.00;103174.19;5091069;28;20028;-78
2022/01/17 05:44:31;;;;;;;43.03;24.25;;;;;;;3.21;100.00;103169.84;5086451;28;20036;-78
2022/01/17 05:46:56;;;;;;;47.33;25.10;;;;;;;3.19;100.00;103179.38;5079019;28;20491;-78
2022/01/17 05:49:22;;;;;;;48.90;25.38;;;;;;;3.18;100.00;103175.03;5070640;28;20115;-78
2022/01/17 05:51:47;;;;;;;48.53;25.20;;;;;;;3.18;100.00;103164.63;5075371;28;20030;-78
2022/01/17 05:54:13;;;;;;;45.97;24.85;;;;;;;3.14;100.00;103161.19;5097654;28;20032;-78
2022/01/17 05:56:38;;;;;;;43.42;25.23;;;;;;;3.17;100.00;103170.72;5081740;28;20031;-79
2022/01/17 05:59:04;;;;;;;54.35;26.02;;;;;;;3.14;100.00;103164.66;5081773;28;20028;-78
2022/01/17 06:01:29;;;;;;;48.28;26.83;;;;;;;3.13;100.00;103169.88;5089072;28;20036;-78
2022/01/17 06:03:55;;;;;;;47.75;26.70;;;;;;;3.12;100.00;103179.41;5082420;28;20055;-78
2022/01/17 06:06:20;;;;;;;50.25;28.23;;;;;;;3.10;100.00;103173.34;5084140;28;20067;-78
2022/01/17 06:08:46;;;;;;;52.28;28.10;;;;;;;3.09;100.00;103179.44;5081639;28;20460;-78
2022/01/17 06:11:12;;;;;;;52.72;27.48;;;;;;;3.09;100.00;103173.38;5081012;28;20024;-78
2022/01/17 06:13:38;;;;;;;48.78;27.20;;;;;;;3.07;100.00;103175.97;5082701;28;20957;-78
2022/01/17 06:16:03;;;;;;;51.78;27.10;;;;;;;3.08;100.00;103182.03;5089435;28;20031;-77
2022/01/17 06:18:29;;;;;;;47.17;27.85;;;;;;;3.06;100.00;103187.25;5088449;28;20047;-78
2022/01/17 06:20:54;;;;;;;48.67;27.85;;;;;;;3.04;100.00;103181.19;5083861;28;20366;-78
2022/01/17 06:23:21;;;;;;;47.17;27.55;;;;;;;3.01;100.00;103173.41;5085135;28;20460;-78
2022/01/17 06:25:46;;;;;;;52.28;28.50;;;;;;;3.02;100.00;103188.13;5104942;28;20031;-78
2022/01/17 06:28:14;;;;;;;45.78;27.30;;;;;;;3.03;100.00;103194.19;5097703;28;20066;-78
2022/01/17 06:30:40;;;;;;;52.72;29.42;;;;;;;3.00;100.00;103195.09;5087147;28;20674;-78
2022/01/17 06:33:05;;;;;;;51.28;28.65;;;;;;;3.00;100.00;103194.22;5089818;28;20056;-78
2022/01/17 06:35:31;;;;;;;49.20;29.13;;;;;;;2.98;100.00;103181.22;5078543;28;20243;-78
2022/01/17 06:37:56;;;;;;;55.95;29.90;;;;;;;2.94;100.00;103176.91;5074567;28;20066;-79
2022/01/17 06:40:21;;;;;;;57.47;30.83;;;;;;;2.97;100.00;103202.03;5077914;28;20081;-78
2022/01/17 06:42:47;;;;;;;54.45;30.08;;;;;;;2.96;100.00;103202.91;5089139;28;20028;-78
2022/01/17 06:45:14;;;;;;;59.60;31.67;;;;;;;2.96;100.00;103218.50;5088542;28;20032;-78
2022/01/17 06:47:40;;;;;;;55.20;31.55;;;;;;;2.93;100.00;103208.13;5104742;28;20077;-78
2022/01/17 06:50:08;;;;;;;57.08;31.00;;;;;;;2.94;100.00;103196.84;5088562;28;20460;-78
2022/01/17 06:52:34;;;;;;;61.63;32.30;;;;;;;2.94;100.00;103205.53;5093599;28;20103;-78
2022/01/17 06:55:00;;;;;;;54.60;30.45;;;;;;;2.92;100.00;103207.25;5080701;28;20020;-78
2022/01/17 06:57:25;;;;;;;60.20;31.75;;;;;;;2.95;100.00;103222.84;5072630;28;20016;-78
2022/01/17 06:59:51;;;;;;;58.05;33.15;;;;;;;2.96;100.00;103234.97;5073507;28;20372;-78
2022/01/17 07:02:17;;;;;;;57.25;31.83;;;;;;;2.98;100.00;103243.63;5097727;28;20107;-78
2022/01/17 07:04:42;;;;;;;57.75;32.28;;;;;;;2.98;100.00;103243.63;5086147;28;20038;-78
2022/01/17 07:07:08;;;;;;;65.03;31.73;;;;;;;2.97;100.00;103231.50;5087450;28;20085;-78
2022/01/17 07:09:34;;;;;;;62.40;32.95;;;;;;;3.00;100.00;103257.50;5086178;28;20031;-79
2022/01/17 07:11:59;;;;;;;60.30;32.50;;;;;;;3.02;100.00;103260.94;5084174;28;20025;-78
2022/01/17 07:14:28;;;;;;;65.60;33.00;;;;;;;3.00;100.00;103241.88;5074949;28;20477;-78
2022/01/17 07:16:55;;;;;;;61.42;31.42;;;;;;;3.01;100.00;103229.75;5079078;28;20036;-78
2022/01/17 07:19:20;;;;;;;59.40;31.83;;;;;;;3.01;100.00;103217.63;5087702;28;20043;-78
2022/01/17 07:21:45;;;;;;;55.88;31.20;;;;;;;3.05;100.00;103223.66;5078792;28;20396;-78
2022/01/17 07:24:14;;;;;;;59.00;31.40;;;;;;;3.03;100.00;103199.41;5083761;28;20035;-78
2022/01/17 07:26:40;;;;;;;56.30;31.80;;;;;;;3.01;100.00;103194.22;5078328;28;20508;-78
2022/01/17 07:29:07;;;;;;;60.55;31.67;;;;;;;3.04;100.00;103191.59;5080818;28;20028;-78
2022/01/17 07:31:33;;;;;;;56.90;31.73;;;;;;;3.04;100.00;103183.78;5085799;28;20035;-78
2022/01/17 07:33:59;;;;;;;56.65;31.02;;;;;;;3.06;100.00;103200.25;5076365;28;20044;-78
2022/01/17 07:36:25;;;;;;;55.78;30.48;;;;;;;3.05;100.00;103211.53;5082330;28;20038;-78
2022/01/17 07:38:50;;;;;;;60.22;31.50;;;;;;;3.07;100.00;103212.38;5071955;28;20025;-78
2022/01/17 07:41:15;;;;;;;60.13;31.23;;;;;;;3.09;100.00;103225.38;5076934;28;20028;-78
2022/01/17 07:43:42;;;;;;;62.35;31.65;;;;;;;3.08;100.00;103234.91;5077704;28;20032;-78
2022/01/17 07:46:18;;;;;;;59.95;31.58;;;;;;;3.10;100.00;103227.97;5083734;28;20043;-78
2022/01/17 07:48:59;;;;;;;58.22;31.67;;;;;;;3.09;100.00;103230.56;5084900;28;20391;-78
2022/01/17 07:51:26;;;;;;;59.97;30.88;;;;;;;3.11;100.00;103234.03;5076082;28;20123;-78
2022/01/17 07:53:52;;;;;;;61.03;31.55;;;;;;;3.09;100.00;103236.66;5075239;28;20496;-78
2022/01/17 07:56:17;;;;;;;56.08;31.58;;;;;;;3.09;100.00;103248.78;5082987;28;20032;-78
2022/01/17 07:58:43;;;;;;;64.00;32.15;;;;;;;3.11;100.00;103247.91;5088582;28;20111;-78
2022/01/17 08:01:08;;;;;;;58.30;31.75;;;;;;;3.10;100.00;103256.59;5083858;28;20032;-78
2022/01/17 08:03:34;;;;;;;63.15;32.85;;;;;;;3.13;100.00;103263.50;5084833;28;20097;-80
2022/01/17 08:06:00;;;;;;;57.60;32.70;;;;;;;3.12;100.00;103269.56;5082004;28;20040;-80
2022/01/17 08:08:26;;;;;;;67.40;33.78;;;;;;;3.11;100.00;103276.50;5088111;28;20380;-80
2022/01/17 08:10:51;;;;;;;62.05;32.30;;;;;;;3.12;100.00;103278.25;5090121;28;20067;-78
2022/01/17 08:13:18;;;;;;;58.33;32.50;;;;;;;3.14;100.00;103286.91;5090405;28;20020;-78
2022/01/17 08:15:45;;;;;;;55.85;33.33;;;;;;;3.16;100.00;103294.69;5091887;28;20024;-78
2022/01/17 08:18:14;;;;;;;62.97;33.38;;;;;;;3.15;100.00;103291.22;5086886;28;20099;-81
2022/01/17 08:20:40;;;;;;;65.85;34.65;;;;;;;3.17;100.00;103278.22;5088540;28;20036;-80
2022/01/17 08:23:06;;;;;;;65.38;34.38;;;;;;;3.22;100.00;103273.03;5089561;28;20468;-80
2022/01/17 08:25:32;;;;;;;64.25;34.22;;;;;;;3.23;100.00;103282.56;5090752;28;20074;-79
2022/01/17 08:27:58;;;;;;;61.17;33.15;;;;;;;3.26;100.00;103272.16;5088929;28;20056;-80
2022/01/17 08:30:23;;;;;;;61.13;32.58;;;;;;;3.28;100.00;103273.88;5089114;28;20100;-79
2022/01/17 08:32:50;;;;;;;60.78;32.78;;;;;;;3.29;100.00;103277.31;5089498;28;20049;-79
2022/01/17 08:35:16;;;;;;;64.32;33.63;;;;;;;3.34;100.00;103285.97;5085950;28;20106;-80
2022/01/17 08:37:42;;;;;;;67.47;33.90;;;;;;;3.37;100.00;103291.16;5083478;28;20029;-80
2022/01/17 08:40:08;;;;;;;65.13;33.35;;;;;;;3.42;100.00;103286.78;5088346;28;20039;-80
2022/01/17 08:42:36;;;;;;;66.50;33.40;;;;;;;3.45;100.00;103286.78;5070664;28;20024;-80
2022/01/17 08:45:04;;;;;;;63.47;32.67;;;;;;;3.47;100.00;103264.22;5072401;28;20047;-77
2022/01/17 08:47:29;;;;;;;62.35;35.08;;;;;;;3.51;100.00;103254.66;5089324;28;20107;-78
2022/01/17 08:49:55;;;;;;;64.53;32.72;;;;;;;3.56;100.00;103258.94;5100763;28;20112;-78
2022/01/17 08:52:20;;;;;;;70.13;33.55;;;;;;;3.60;100.00;103251.97;5104336;28;20503;-78
2022/01/17 08:54:46;;;;;;;63.53;33.05;;;;;;;3.63;100.00;103260.66;5079978;28;20509;-77
2022/01/17 08:57:12;;;;;;;64.68;31.98;;;;;;;3.72;100.00;103270.16;5098537;28;20033;-77
2022/01/17 08:59:37;;;;;;;64.68;31.88;;;;;;;3.73;100.00;103267.53;5088631;28;20025;-77
2022/01/17 09:02:04;;;;;;;61.22;31.02;;;;;;;3.78;100.00;103275.31;5076327;28;20054;-78
2022/01/17 09:04:29;;;;;;;65.05;30.77;;;;;;;3.79;100.00;103271.84;5086303;28;20024;-77
2022/01/17 09:06:55;;;;;;;58.95;30.05;;;;;;;3.86;100.00;103283.94;5083189;28;20024;-78
2022/01/17 09:09:20;;;;;;;59.08;29.50;;;;;;;3.91;100.00;103283.91;5088093;28;20028;-78
2022/01/17 09:11:45;;;;;;;64.63;30.98;;;;;;;3.88;100.00;103276.09;5077056;28;20035;-78
2022/01/17 09:14:14;;;;;;;60.65;27.85;;;;;;;3.95;100.00;103277.78;5087207;28;20085;-78
2022/01/17 09:16:39;;;;;;;63.75;29.98;;;;;;;4.00;100.00;103286.44;5082563;28;20055;-78
2022/01/17 09:19:07;;;;;;;54.75;27.10;;;;;;;4.03;100.00;103294.25;5076985;28;20029;-78
2022/01/17 09:21:32;;;;;;;66.15;27.40;;;;;;;4.07;100.00;103319.41;5089351;28;20024;-81
2022/01/17 09:23:58;;;;;;;56.00;24.48;;;;;;;4.04;100.00;103314.22;5091017;28;20030;-81
2022/01/17 09:26:27;;;;;;;47.78;24.48;;;;;;;4.12;100.00;103325.44;5090414;28;20032;-84
2022/01/17 09:28:53;;;;;;;54.35;24.60;;;;;;;4.16;100.00;103332.34;5088501;28;20032;-81
2022/01/17 09:31:22;;;;;;;49.92;23.30;;;;;;;4.19;100.00;103329.72;5090670;28;20028;-81
2022/01/17 09:33:47;;;;;;;56.42;23.05;;;;;;;4.23;100.00;103331.41;5081577;28;20044;-83
2022/01/17 09:36:13;;;;;;;53.10;23.23;;;;;;;4.23;100.00;103318.41;5081115;28;20366;-80
2022/01/17 09:38:39;;;;;;;47.22;22.10;;;;;;;4.31;100.00;103323.53;5081890;28;20488;-80
2022/01/17 09:41:06;;;;;;;48.47;21.75;;;;;;;4.36;100.00;103324.38;5087847;28;20142;-78
2022/01/17 09:43:31;;;;;;;48.38;21.42;;;;;;;4.42;100.00;103321.72;5088013;28;20571;-77
2022/01/17 09:45:57;;;;;;;42.17;19.90;;;;;;;4.47;100.00;103329.50;5087171;28;20028;-78
2022/01/17 09:48:33;;;;;;;48.67;19.83;;;;;;;4.45;100.00;103331.28;5083740;28;20032;-78
2022/01/17 09:51:05;;;;;;;44.65;19.00;;;;;;;4.50;100.00;103334.69;5079905;28;20020;-79
2022/01/17 09:53:34;;;;;;;48.00;18.90;;;;;;;4.54;100.00;103341.59;5083940;28;20034;-77
2022/01/17 09:56:03;;;;;;;45.08;18.67;;;;;;;4.56;100.00;103352.88;5088010;28;20517;-77
2022/01/17 09:58:29;;;;;;;43.22;17.55;;;;;;;4.57;100.00;103341.56;5089360;28;20020;-78
2022/01/17 10:00:55;;;;;;;43.55;17.48;;;;;;;4.60;100.00;103351.97;5080888;28;20094;-78
2022/01/17 10:03:21;;;;;;;49.22;17.50;;;;;;;4.62;100.00;103365.88;5106316;28;20550;-79
2022/01/17 10:05:46;;;;;;;43.08;16.80;;;;;;;4.68;100.00;103355.38;5083547;28;20020;-79
2022/01/17 10:08:16;;;;;;;45.03;16.23;;;;;;;4.69;100.00;103360.56;5089390;28;20032;-78
2022/01/17 10:10:49;;;;;;;42.15;16.15;;;;;;;4.73;100.00;103377.06;5087900;28;20035;-78
2022/01/17 10:13:26;;;;;;;43.72;14.95;;;;;;;4.73;100.00;103353.59;5083654;28;20062;-80
2022/01/17 10:16:23;;;;;;;42.47;15.00;;;;;;;4.76;100.00;103358.78;5089867;28;20035;-81
2022/01/17 10:19:02;;;;;;;37.55;14.15;;;;;;;4.78;100.00;103364.84;5079604;28;20126;-79
2022/01/17 10:21:39;;;;;;;39.67;14.88;;;;;;;4.79;100.00;103360.47;5076009;28;20058;-78
2022/01/17 10:37:13;;;;;;;37.92;11.30;;;;;;;4.96;100.00;103385.53;5083547;28;20036;-79
2022/01/17 10:39:55;;;;;;;37.63;11.00;;;;;;;4.99;100.00;103380.28;5084920;28;20089;-78
2022/01/17 10:42:29;;;;;;;35.00;11.32;;;;;;;5.01;100.00;103380.28;5095056;28;20020;-79
2022/01/17 10:45:12;;;;;;;38.30;11.60;;;;;;;5.06;100.00;103388.06;5075863;28;20139;-78
2022/01/17 10:47:42;;;;;;;35.33;10.73;;;;;;;5.06;100.00;103375.00;5086834;28;20557;-79
2022/01/17 10:50:25;;;;;;;35.75;11.18;;;;;;;5.11;100.00;103381.03;5076195;28;20034;-79
2022/01/17 10:52:54;;;;;;;33.78;10.68;;;;;;;5.09;100.00;103372.38;5096121;28;20063;-79
2022/01/17 10:55:26;;;;;;;35.83;10.63;;;;;;;5.08;100.00;103381.06;5079956;28;20038;-78
2022/01/17 10:57:54;;;;;;;37.83;10.60;;;;;;;5.14;100.00;103401.88;5103573;28;20016;-79
2022/01/17 11:00:28;;;;;;;30.98;10.35;;;;;;;5.16;100.00;103402.72;5088537;28;20107;-78
2022/01/17 11:02:57;;;;;;;31.27;10.20;;;;;;;5.17;100.00;103401.84;5087000;28;20055;-78
2022/01/17 11:05:23;;;;;;;32.85;10.18;;;;;;;5.19;100.00;103414.00;5079821;28;20027;-79
2022/01/17 11:07:52;;;;;;;34.08;10.05;;;;;;;5.21;100.00;103409.66;5077637;28;20099;-78
2022/01/17 11:10:39;;;;;;;35.00;9.75;;;;;;;5.27;100.00;103419.16;5079633;28;20111;-78
2022/01/17 11:13:13;;;;;;;34.08;10.13;;;;;;;5.27;100.00;103425.25;5085801;28;20130;-79
2022/01/17 11:15:40;;;;;;;33.55;9.25;;;;;;;5.30;100.00;103419.13;5081124;28;20491;-81
2022/01/17 11:18:12;;;;;;;29.05;9.23;;;;;;;5.29;100.00;103418.28;5082444;28;20392;-80
2022/01/17 11:20:37;;;;;;;37.30;9.90;;;;;;;5.32;100.00;103419.97;5084269;28;20024;-79
2022/01/17 11:23:03;;;;;;;40.45;10.25;;;;;;;5.38;100.00;103412.06;5086429;28;20038;-79
2022/01/17 11:25:35;;;;;;;38.53;9.70;;;;;;;5.41;100.00;103409.44;5087984;28;20143;-79
2022/01/17 11:28:03;;;;;;;38.65;9.48;;;;;;;5.41;100.00;103409.44;5084890;28;20028;-79
2022/01/17 11:30:34;;;;;;;28.90;8.98;;;;;;;5.46;100.00;103396.31;5085990;28;20072;-79
2022/01/17 11:33:03;;;;;;;33.47;8.60;;;;;;;5.47;100.00;103401.53;5077642;28;20043;-79
2022/01/17 11:35:30;;;;;;;34.60;8.88;;;;;;;5.50;100.00;103391.03;5086259;28;20047;-79
2022/01/17 11:37:59;;;;;;;35.80;8.48;;;;;;;5.51;100.00;103373.63;5085045;28;20103;-79
2022/01/17 11:40:32;;;;;;;31.95;9.13;;;;;;;5.52;100.00;103378.84;5088050;28;20028;-79
2022/01/17 11:42:59;;;;;;;;;;;;;;;5.61;100.00;103377.88;5086712;28;20032;-79
2022/01/17 11:45:24;;;;;;;31.08;8.07;;;;;;;5.59;100.00;103384.84;5087595;28;20313;-79